createdAt,value
2023-03-12T00:00:11.316Z,97454.47
2023-03-12T00:02:38.819Z,97453.50
2023-03-12T00:05:06.574Z,97452.84
2023-03-12T00:07:36.323Z,97451.03
2023-03-12T00:10:05.278Z,97453.50
2023-03-12T00:12:32.380Z,97456.69
2023-03-12T00:14:59.787Z,97458.63
2023-03-12T00:17:28.683Z,97455.22
2023-03-12T00:19:55.790Z,97455.53
2023-03-12T00:22:23.169Z,97458.47
2023-03-12T00:24:57.351Z,97457.47
2023-03-12T00:27:27.408Z,97463.56
2023-03-12T00:29:55.202Z,97467.56
2023-03-12T00:32:22.874Z,97459.31
2023-03-12T00:34:55.756Z,97449.44
2023-03-12T00:37:23.438Z,97463.09
2023-03-12T00:39:50.804Z,97467.88
2023-03-12T00:42:18.266Z,97464.75
2023-03-12T00:44:45.830Z,97464.09
2023-03-12T00:47:13.727Z,97457.34
2023-03-12T00:49:41.057Z,97449.34
2023-03-12T00:52:08.390Z,97457.72
2023-03-12T00:54:35.769Z,97461.81
2023-03-12T00:57:02.799Z,97452.97
2023-03-12T00:59:31.092Z,97445.22
2023-03-12T01:01:58.528Z,97447.03
2023-03-12T01:04:25.771Z,97450.19
2023-03-12T01:06:52.766Z,97452.78
2023-03-12T01:09:20.223Z,97449.84
2023-03-12T01:11:47.579Z,97444.59
2023-03-12T01:14:14.943Z,97444.44
2023-03-12T01:16:42.348Z,97445.91
2023-03-12T01:19:09.772Z,97454.44
2023-03-12T01:21:37.168Z,97442.59
2023-03-12T01:24:04.781Z,97452.63
2023-03-12T01:26:31.910Z,97458.38
2023-03-12T01:28:59.341Z,97449.19
2023-03-12T01:31:26.470Z,97446.88
2023-03-12T01:33:54.600Z,97455.44
2023-03-12T01:36:28.688Z,97451.47
2023-03-12T01:38:58.788Z,97451.81
2023-03-12T01:41:29.474Z,97446.53
2023-03-12T01:43:57.055Z,97453.78
2023-03-12T01:46:36.900Z,97452.28
2023-03-12T01:49:17.808Z,97453.28
2023-03-12T01:52:05.030Z,97458.84
2023-03-12T01:54:55.284Z,97460.00
2023-03-12T01:57:34.260Z,97456.72
2023-03-12T02:00:18.446Z,97452.44
2023-03-12T02:02:46.773Z,97460.03
2023-03-12T02:05:43.389Z,97453.75
2023-03-12T02:08:12.404Z,97461.69
2023-03-12T02:10:40.554Z,97457.38
2023-03-12T02:13:08.528Z,97458.72
2023-03-12T02:15:36.722Z,97461.50
2023-03-12T02:18:08.212Z,97455.28
2023-03-12T02:21:15.013Z,97453.75
2023-03-12T02:23:53.823Z,97446.88
2023-03-12T02:26:22.279Z,97453.75
2023-03-12T02:28:50.990Z,97453.75
2023-03-12T02:31:26.591Z,97444.41
2023-03-12T02:33:55.888Z,97440.31
2023-03-12T02:36:22.972Z,97446.19
2023-03-12T02:38:52.970Z,97447.03
2023-03-12T02:41:20.667Z,97450.81
2023-03-12T02:43:55.875Z,97452.28
2023-03-12T02:46:23.466Z,97455.91
2023-03-12T02:48:51.942Z,97446.69
2023-03-12T02:51:19.313Z,97444.91
2023-03-12T02:53:46.830Z,97445.53
2023-03-12T02:56:14.826Z,97441.94
2023-03-12T02:58:43.022Z,97439.81
2023-03-12T03:01:10.513Z,97434.88
2023-03-12T03:03:38.084Z,97438.16
2023-03-12T03:06:05.623Z,97435.38
2023-03-12T03:08:32.600Z,97432.06
2023-03-12T03:11:02.959Z,97435.03
2023-03-12T03:13:31.062Z,97434.72
2023-03-12T03:15:59.751Z,97438.63
2023-03-12T03:18:27.646Z,97438.97
2023-03-12T03:21:02.654Z,97438.66
2023-03-12T03:23:32.717Z,97430.75
2023-03-12T03:26:00.658Z,97424.53
2023-03-12T03:28:29.856Z,97416.97
2023-03-12T03:31:01.635Z,97419.63
2023-03-12T03:33:35.673Z,97413.88
2023-03-12T03:36:05.699Z,97415.34
2023-03-12T03:38:36.352Z,97412.53
2023-03-12T03:41:04.451Z,97417.97
2023-03-12T03:43:33.967Z,97415.00
2023-03-12T03:46:04.767Z,97405.00
2023-03-12T03:48:35.646Z,97415.97
2023-03-12T03:51:05.256Z,97409.09
2023-03-12T03:53:34.966Z,97415.19
2023-03-12T03:56:10.843Z,97412.22
2023-03-12T03:58:41.350Z,97413.72
2023-03-12T04:01:09.105Z,97416.66
2023-03-12T04:03:37.012Z,97411.56
2023-03-12T04:06:06.681Z,97415.00
2023-03-12T04:08:37.250Z,97417.97
2023-03-12T04:11:13.326Z,97416.16
2023-03-12T04:13:40.908Z,97418.31
2023-03-12T04:16:09.417Z,97406.47
2023-03-12T04:18:38.668Z,97412.88
2023-03-12T04:21:08.239Z,97416.97
2023-03-12T04:23:36.874Z,97407.63
2023-03-12T04:26:05.363Z,97397.63
2023-03-12T04:28:33.108Z,97402.53
2023-03-12T04:31:04.134Z,97401.06
2023-03-12T04:33:39.493Z,97400.72
2023-03-12T04:36:08.704Z,97399.75
2023-03-12T04:38:38.273Z,97410.41
2023-03-12T04:41:16.553Z,97405.47
2023-03-12T04:43:51.525Z,97406.31
2023-03-12T04:46:20.102Z,97413.03
2023-03-12T04:48:47.253Z,97420.53
2023-03-12T04:51:15.598Z,97413.31
2023-03-12T04:53:43.313Z,97411.53
2023-03-12T04:56:12.243Z,97408.94
2023-03-12T04:58:40.405Z,97422.56
2023-03-12T05:01:12.025Z,97414.69
2023-03-12T05:03:39.530Z,97405.16
2023-03-12T05:06:06.965Z,97416.00
2023-03-12T05:08:34.401Z,97416.00
2023-03-12T05:11:02.716Z,97405.84
2023-03-12T05:13:30.106Z,97409.59
2023-03-12T05:15:58.309Z,97404.19
2023-03-12T05:18:26.931Z,97388.56
2023-03-12T05:21:07.787Z,97396.63
2023-03-12T05:23:36.021Z,97395.50
2023-03-12T05:26:03.192Z,97391.69
2023-03-12T05:28:30.713Z,97400.22
2023-03-12T05:31:01.798Z,97402.38
2023-03-12T05:33:30.780Z,97410.75
2023-03-12T05:36:00.770Z,97406.28
2023-03-12T05:38:28.265Z,97400.88
2023-03-12T05:40:59.223Z,97402.38
2023-03-12T05:43:28.691Z,97404.34
2023-03-12T05:46:00.854Z,97406.78
2023-03-12T05:48:28.657Z,97407.13
2023-03-12T05:50:56.796Z,97415.84
2023-03-12T05:53:24.519Z,97406.13
2023-03-12T05:55:52.148Z,97413.53
2023-03-12T05:58:19.849Z,97404.84
2023-03-12T06:00:47.337Z,97401.06
2023-03-12T06:03:15.845Z,97406.13
2023-03-12T06:05:45.556Z,97400.75
2023-03-12T06:08:13.268Z,97401.72
2023-03-12T06:10:41.036Z,97391.53
2023-03-12T06:13:09.166Z,97393.69
2023-03-12T06:15:36.675Z,97405.66
2023-03-12T06:18:06.216Z,97409.09
2023-03-12T06:20:34.833Z,97390.53
2023-03-12T06:23:02.208Z,97394.31
2023-03-12T06:25:29.782Z,97396.13
2023-03-12T06:27:57.947Z,97393.34
2023-03-12T06:30:27.051Z,97383.31
2023-03-12T06:32:54.654Z,97381.38
2023-03-12T06:35:22.395Z,97391.03
2023-03-12T06:37:49.804Z,97389.25
2023-03-12T06:40:17.944Z,97391.84
2023-03-12T06:42:45.180Z,97390.69
2023-03-12T06:45:12.630Z,97394.31
2023-03-12T06:47:40.016Z,97390.06
2023-03-12T06:50:07.399Z,97389.72
2023-03-12T06:52:35.074Z,97383.34
2023-03-12T06:55:02.494Z,97386.78
2023-03-12T06:57:29.851Z,97394.66
2023-03-12T06:59:57.246Z,97388.41
2023-03-12T07:02:24.753Z,97396.56
2023-03-12T07:04:52.309Z,97392.84
2023-03-12T07:07:20.084Z,97390.13
2023-03-12T07:09:47.484Z,97401.66
2023-03-12T07:12:14.472Z,97396.09
2023-03-12T07:14:41.907Z,97392.91
2023-03-12T07:17:09.324Z,97397.19
2023-03-12T07:19:36.940Z,97405.13
2023-03-12T07:22:04.663Z,97407.56
2023-03-12T07:24:32.222Z,97412.63
2023-03-12T07:26:59.784Z,97425.38
2023-03-12T07:29:27.196Z,97426.09
2023-03-12T07:31:54.568Z,97425.22
2023-03-12T07:34:22.069Z,97432.56
2023-03-12T07:36:49.576Z,97425.13
2023-03-12T07:39:17.291Z,97427.16
2023-03-12T07:41:44.846Z,97428.47
2023-03-12T07:44:12.409Z,97423.22
2023-03-12T07:46:39.877Z,97420.59
2023-03-12T07:49:07.636Z,97428.22
2023-03-12T07:51:35.089Z,97418.63
2023-03-12T07:54:02.490Z,97411.38
2023-03-12T07:56:29.925Z,97404.19
2023-03-12T07:58:57.560Z,97410.06
2023-03-12T08:01:31.711Z,97417.81
2023-03-12T08:03:59.526Z,97403.22
2023-03-12T08:06:27.280Z,97407.63
2023-03-12T08:08:54.814Z,97398.69
2023-03-12T08:11:22.645Z,97399.50
2023-03-12T08:13:50.088Z,97402.22
2023-03-12T08:16:18.490Z,97416.59
2023-03-12T08:18:45.834Z,97413.41
2023-03-12T08:21:16.411Z,97406.47
2023-03-12T08:23:44.284Z,97405.78
2023-03-12T08:26:11.745Z,97407.13
2023-03-12T08:28:39.144Z,97403.44
2023-03-12T08:31:07.351Z,97407.47
2023-03-12T08:33:34.682Z,97405.47
2023-03-12T08:36:02.145Z,97410.56
2023-03-12T08:38:29.190Z,97409.28
2023-03-12T08:41:00.380Z,97415.50
2023-03-12T08:43:29.453Z,97420.59
2023-03-12T08:46:02.440Z,97424.38
2023-03-12T08:48:31.780Z,97423.22
2023-03-12T08:51:00.541Z,97421.22
2023-03-12T08:53:28.322Z,97418.59
2023-03-12T08:55:56.730Z,97423.72
2023-03-12T08:58:25.421Z,97418.75
2023-03-12T09:00:53.305Z,97428.28
2023-03-12T09:03:21.615Z,97422.75
2023-03-12T09:05:49.859Z,97418.63
2023-03-12T09:08:17.705Z,97418.22
2023-03-12T09:10:50.253Z,97414.38
2023-03-12T09:13:17.919Z,97414.88
2023-03-12T09:15:45.320Z,97410.91
2023-03-12T09:18:12.700Z,97412.06
2023-03-12T09:20:41.759Z,97409.94
2023-03-12T09:23:09.128Z,97413.69
2023-03-12T09:25:36.474Z,97412.66
2023-03-12T09:28:03.826Z,97417.59
2023-03-12T09:30:32.185Z,97405.41
2023-03-12T09:32:59.867Z,97415.47
2023-03-12T09:35:27.239Z,97418.63
2023-03-12T09:37:54.595Z,97422.56
2023-03-12T09:40:25.963Z,97439.75
2023-03-12T09:42:59.528Z,97419.22
2023-03-12T09:45:31.247Z,97433.72
2023-03-12T09:48:04.901Z,97426.97
2023-03-12T09:50:43.566Z,97422.81
2023-03-12T09:53:33.934Z,97442.72
2023-03-12T09:56:09.192Z,97435.69
2023-03-12T09:58:38.407Z,97431.44
2023-03-12T10:01:24.422Z,97422.47
2023-03-12T10:04:24.851Z,97424.66
2023-03-12T10:07:19.192Z,97432.38
2023-03-12T10:09:52.084Z,97435.16
2023-03-12T10:12:34.770Z,97426.91
2023-03-12T10:15:42.979Z,97421.44
2023-03-12T10:18:39.141Z,97427.56
2023-03-12T10:21:22.324Z,97438.16
2023-03-12T10:23:52.770Z,97437.31
2023-03-12T10:26:25.730Z,97423.72
2023-03-12T10:29:06.255Z,97440.00
2023-03-12T10:31:48.274Z,97448.19
2023-03-12T10:34:25.290Z,97452.69
2023-03-12T10:36:52.908Z,97453.31
2023-03-12T10:39:20.997Z,97452.94
2023-03-12T10:41:49.250Z,97444.78
2023-03-12T10:44:24.981Z,97448.66
2023-03-12T10:47:28.827Z,97438.63
2023-03-12T10:50:00.518Z,97466.44
2023-03-12T10:52:27.909Z,97461.09
2023-03-12T10:54:55.256Z,97462.25
2023-03-12T10:57:23.710Z,97458.97
2023-03-12T10:59:51.643Z,97459.56
2023-03-12T11:02:46.336Z,97466.28
2023-03-12T11:05:31.404Z,97451.13
2023-03-12T11:08:01.800Z,97483.75
2023-03-12T11:10:59.799Z,97468.75
2023-03-12T11:13:38.321Z,97475.41
2023-03-12T11:16:17.446Z,97455.84
2023-03-12T11:19:04.715Z,97470.53
2023-03-12T11:21:37.072Z,97466.94
2023-03-12T11:24:07.322Z,97479.31
2023-03-12T11:26:43.921Z,97463.94
2023-03-12T11:29:30.680Z,97477.59
2023-03-12T11:32:31.726Z,97480.50
2023-03-12T11:34:59.278Z,97458.53
2023-03-12T11:37:40.167Z,97467.66
2023-03-12T11:40:21.765Z,97464.75
2023-03-12T11:43:43.650Z,97480.78
2023-03-12T11:46:32.358Z,97472.41
2023-03-12T11:49:18.198Z,97452.34
2023-03-12T11:52:21.442Z,97463.38
2023-03-12T11:55:48.885Z,97468.41
2023-03-12T11:58:53.160Z,97474.75
2023-03-12T12:02:00.922Z,97460.75
2023-03-12T12:04:50.242Z,97441.84
2023-03-12T12:07:35.181Z,97464.97
2023-03-12T12:10:58.310Z,97449.19
2023-03-12T12:13:34.473Z,97454.00
2023-03-12T12:16:13.778Z,97429.38
2023-03-12T12:19:35.093Z,97442.88
2023-03-12T12:22:45.343Z,97453.06
2023-03-12T12:25:26.089Z,97463.22
2023-03-12T12:28:42.034Z,97451.53
2023-03-12T12:31:24.389Z,97444.03
2023-03-12T12:33:57.927Z,97440.97
2023-03-12T12:36:26.373Z,97437.03
2023-03-12T12:39:01.416Z,97446.09
2023-03-12T12:41:41.923Z,97437.34
2023-03-12T12:44:30.048Z,97436.81
2023-03-12T12:47:05.629Z,97419.59
2023-03-12T12:50:03.107Z,97421.78
2023-03-12T12:52:31.136Z,97426.88
2023-03-12T12:55:04.310Z,97423.09
2023-03-12T12:57:53.448Z,97419.75
2023-03-12T13:00:44.161Z,97420.59
2023-03-12T13:03:21.603Z,97424.66
2023-03-12T13:06:06.509Z,97413.38
2023-03-12T13:09:01.941Z,97415.56
2023-03-12T13:11:44.335Z,97419.03
2023-03-12T13:14:11.237Z,97418.03
2023-03-12T13:16:46.853Z,97412.75
2023-03-12T13:19:14.107Z,97403.31
2023-03-12T13:21:42.030Z,97409.16
2023-03-12T13:24:51.741Z,97400.53
2023-03-12T13:27:28.920Z,97417.75
2023-03-12T13:29:59.463Z,97420.31
2023-03-12T13:32:37.672Z,97425.59
2023-03-12T13:35:31.738Z,97413.69
2023-03-12T13:38:03.970Z,97404.47
2023-03-12T13:41:00.778Z,97422.88
2023-03-12T13:43:39.993Z,97420.56
2023-03-12T13:46:16.036Z,97425.31
2023-03-12T13:48:47.943Z,97419.19
2023-03-12T13:51:24.433Z,97410.34
2023-03-12T13:53:56.900Z,97399.00
2023-03-12T13:56:31.031Z,97389.56
2023-03-12T13:59:03.551Z,97398.88
2023-03-12T14:01:37.585Z,97402.00
2023-03-12T14:04:08.124Z,97393.94
2023-03-12T14:07:12.490Z,97381.38
2023-03-12T14:10:08.887Z,97397.38
2023-03-12T14:13:18.246Z,97391.72
2023-03-12T14:16:37.923Z,97391.28
2023-03-12T14:19:06.208Z,97392.47
2023-03-12T14:21:40.100Z,97395.66
2023-03-12T14:24:11.574Z,97391.59
2023-03-12T14:26:39.633Z,97395.53
2023-03-12T14:29:10.632Z,97396.66
2023-03-12T14:31:39.060Z,97406.63
2023-03-12T14:34:12.176Z,97414.94
2023-03-12T14:37:05.890Z,97424.38
2023-03-12T14:39:39.701Z,97430.13
2023-03-12T14:42:09.170Z,97436.44
2023-03-12T14:44:38.599Z,97429.66
2023-03-12T14:47:18.840Z,97426.06
2023-03-12T14:49:47.291Z,97429.47
2023-03-12T14:52:22.575Z,97420.81
2023-03-12T14:55:07.593Z,97415.22
2023-03-12T14:57:35.451Z,97410.03
2023-03-12T15:00:03.177Z,97398.66
2023-03-12T15:02:31.787Z,97412.41
2023-03-12T15:05:01.723Z,97401.72
2023-03-12T15:07:34.764Z,97395.78
2023-03-12T15:10:20.843Z,97405.91
2023-03-12T15:12:48.387Z,97398.75
2023-03-12T15:15:37.333Z,97397.44
2023-03-12T15:18:13.837Z,97393.97
2023-03-12T15:20:41.648Z,97410.03
2023-03-12T15:23:13.626Z,97405.13
2023-03-12T15:25:41.537Z,97397.41
2023-03-12T15:28:29.164Z,97390.03
2023-03-12T15:31:16.739Z,97394.91
2023-03-12T15:33:44.707Z,97380.03
2023-03-12T15:36:24.728Z,97378.44
2023-03-12T15:38:56.042Z,97383.75
2023-03-12T15:41:49.088Z,97389.81
2023-03-12T15:44:33.182Z,97388.44
2023-03-12T15:47:14.596Z,97392.88
2023-03-12T15:49:42.393Z,97389.66
2023-03-12T15:52:18.760Z,97387.78
2023-03-12T15:55:13.014Z,97385.97
2023-03-12T15:57:48.672Z,97381.09
2023-03-12T16:00:44.237Z,97390.03
2023-03-12T16:03:20.046Z,97392.94
2023-03-12T16:05:48.727Z,97400.28
2023-03-12T16:08:38.859Z,97388.88
2023-03-12T16:11:25.218Z,97393.34
2023-03-12T16:14:04.946Z,97384.97
2023-03-12T16:16:32.455Z,97390.81
2023-03-12T16:18:59.797Z,97378.25
2023-03-12T16:21:27.312Z,97386.81
2023-03-12T16:23:54.696Z,97379.06
2023-03-12T16:26:22.461Z,97382.53
2023-03-12T16:28:50.594Z,97394.31
2023-03-12T16:31:18.058Z,97382.31
2023-03-12T16:33:45.513Z,97379.47
2023-03-12T16:36:15.955Z,97377.44
2023-03-12T16:38:44.302Z,97368.69
2023-03-12T16:41:17.745Z,97388.47
2023-03-12T16:43:51.118Z,97394.97
2023-03-12T16:46:21.663Z,97400.69
2023-03-12T16:48:53.610Z,97402.34
2023-03-12T16:51:21.120Z,97394.34
2023-03-12T16:53:55.843Z,97394.09
2023-03-12T16:56:29.569Z,97391.94
2023-03-12T16:58:58.460Z,97379.25
2023-03-12T17:01:29.140Z,97370.91
2023-03-12T17:03:56.544Z,97381.13
2023-03-12T17:06:26.441Z,97378.84
2023-03-12T17:08:54.488Z,97374.78
2023-03-12T17:11:25.667Z,97376.41
2023-03-12T17:13:59.933Z,97381.94
2023-03-12T17:16:27.862Z,97380.69
2023-03-12T17:18:55.412Z,97385.22
2023-03-12T17:21:23.247Z,97377.44
2023-03-12T17:23:51.200Z,97382.09
2023-03-12T17:26:19.736Z,97386.41
2023-03-12T17:28:47.231Z,97384.78
2023-03-12T17:31:14.956Z,97389.56
2023-03-12T17:33:43.288Z,97380.72
2023-03-12T17:36:11.123Z,97389.25
2023-03-12T17:38:38.608Z,97397.41
2023-03-12T17:41:16.547Z,97398.63
2023-03-12T17:43:50.606Z,97399.69
2023-03-12T17:46:18.082Z,97399.25
2023-03-12T17:48:45.094Z,97400.97
2023-03-12T17:51:12.511Z,97404.13
2023-03-12T17:53:41.714Z,97398.25
2023-03-12T17:56:09.565Z,97410.88
2023-03-12T17:58:36.973Z,97414.22
2023-03-12T18:01:04.732Z,97423.22
2023-03-12T18:03:32.061Z,97419.22
2023-03-12T18:05:59.067Z,97428.59
2023-03-12T18:08:26.556Z,97417.56
2023-03-12T18:10:54.194Z,97414.53
2023-03-12T18:13:21.679Z,97426.47
2023-03-12T18:15:56.823Z,97432.09
2023-03-12T18:18:26.081Z,97427.16
2023-03-12T18:20:54.136Z,97432.50
2023-03-12T18:23:25.302Z,97432.63
2023-03-12T18:25:53.126Z,97416.94
2023-03-12T18:28:20.950Z,97427.88
2023-03-12T18:30:49.003Z,97421.53
2023-03-12T18:33:16.982Z,97425.25
2023-03-12T18:35:44.805Z,97430.19
2023-03-12T18:38:12.641Z,97430.25
2023-03-12T18:40:40.016Z,97438.00
2023-03-12T18:43:07.525Z,97448.63
2023-03-12T18:45:35.858Z,97443.56
2023-03-12T18:48:03.243Z,97453.94
2023-03-12T18:50:30.622Z,97445.59
2023-03-12T18:52:57.997Z,97454.22
2023-03-12T18:55:25.532Z,97448.22
2023-03-12T18:57:53.047Z,97457.28
2023-03-12T19:00:20.629Z,97445.78
2023-03-12T19:02:48.725Z,97444.13
2023-03-12T19:05:16.555Z,97440.16
2023-03-12T19:07:44.410Z,97444.94
2023-03-12T19:10:12.552Z,97441.84
2023-03-12T19:12:51.708Z,97444.25
2023-03-12T19:15:22.496Z,97438.75
2023-03-12T19:17:50.158Z,97446.53
2023-03-12T19:20:17.882Z,97437.78
2023-03-12T19:22:45.485Z,97440.88
2023-03-12T19:25:13.476Z,97447.63
2023-03-12T19:27:43.246Z,97448.03
2023-03-12T19:30:11.222Z,97445.97
2023-03-12T19:32:43.871Z,97454.34
2023-03-12T19:35:13.611Z,97452.53
2023-03-12T19:37:41.573Z,97448.47
2023-03-12T19:40:10.849Z,97449.44
2023-03-12T19:42:38.392Z,97448.41
2023-03-12T19:45:06.290Z,97442.69
2023-03-12T19:47:35.558Z,97450.44
2023-03-12T19:50:03.292Z,97458.16
2023-03-12T19:52:33.999Z,97454.50
2023-03-12T19:55:05.197Z,97454.69
2023-03-12T19:57:33.862Z,97454.94
2023-03-12T20:00:03.801Z,97469.81
2023-03-12T20:02:34.020Z,97471.03
2023-03-12T20:05:01.814Z,97466.59
2023-03-12T20:07:32.410Z,97466.38
2023-03-12T20:10:05.574Z,97461.53
2023-03-12T20:12:37.509Z,97460.88
2023-03-12T20:15:05.907Z,97458.66
2023-03-12T20:17:33.295Z,97460.06
2023-03-12T20:20:01.193Z,97459.66
2023-03-12T20:22:28.589Z,97462.09
2023-03-12T20:24:56.404Z,97455.13
2023-03-12T20:27:26.498Z,97464.34
2023-03-12T20:29:53.949Z,97464.31
2023-03-12T20:32:21.458Z,97462.91
2023-03-12T20:34:49.424Z,97469.00
2023-03-12T20:37:19.892Z,97462.09
2023-03-12T20:39:47.336Z,97457.41
2023-03-12T20:42:14.788Z,97460.47
2023-03-12T20:44:42.514Z,97469.06
2023-03-12T20:47:12.843Z,97464.38
2023-03-12T20:49:40.448Z,97472.84
2023-03-12T20:52:07.845Z,97462.34
2023-03-12T20:54:35.329Z,97463.44
2023-03-12T20:57:02.946Z,97456.16
2023-03-12T20:59:30.317Z,97467.75
2023-03-12T21:01:57.665Z,97453.31
2023-03-12T21:04:25.073Z,97461.63
2023-03-12T21:06:52.103Z,97457.16
2023-03-12T21:09:21.737Z,97451.72
2023-03-12T21:11:48.748Z,97462.28
2023-03-12T21:14:16.294Z,97452.47
2023-03-12T21:16:43.769Z,97450.28
2023-03-12T21:19:11.138Z,97454.19
2023-03-12T21:21:38.392Z,97452.94
2023-03-12T21:24:08.897Z,97457.78
2023-03-12T21:26:36.469Z,97467.78
2023-03-12T21:29:04.340Z,97457.03
2023-03-12T21:31:31.785Z,97460.88
2023-03-12T21:33:59.171Z,97462.00
2023-03-12T21:36:27.029Z,97449.94
2023-03-12T21:38:53.980Z,97454.50
2023-03-12T21:41:21.824Z,97452.50
2023-03-12T21:43:49.252Z,97450.44
2023-03-12T21:46:19.955Z,97447.56
2023-03-12T21:48:48.395Z,97443.16
2023-03-12T21:51:17.389Z,97443.22
2023-03-12T21:53:44.792Z,97430.69
2023-03-12T21:56:13.037Z,97439.03
2023-03-12T21:58:40.155Z,97451.13
2023-03-12T22:01:13.783Z,97450.13
2023-03-12T22:03:43.031Z,97435.38
2023-03-12T22:06:11.249Z,97441.66
2023-03-12T22:08:39.464Z,97439.94
2023-03-12T22:11:08.659Z,97435.53
2023-03-12T22:13:36.311Z,97434.97
2023-03-12T22:16:07.741Z,97433.97
2023-03-12T22:18:39.706Z,97419.25
2023-03-12T22:21:07.930Z,97428.00
2023-03-12T22:23:36.975Z,97426.97
2023-03-12T22:26:07.902Z,97419.81
2023-03-12T22:28:35.716Z,97407.19
2023-03-12T22:31:06.379Z,97405.50
2023-03-12T22:33:36.057Z,97400.28
2023-03-12T22:36:09.393Z,97401.88
2023-03-12T22:38:37.809Z,97398.38
2023-03-12T22:41:31.610Z,97398.56
2023-03-12T22:44:05.415Z,97384.28
2023-03-12T22:46:33.052Z,97386.56
2023-03-12T22:49:01.817Z,97389.66
2023-03-12T22:51:31.583Z,97375.16
2023-03-12T22:53:58.961Z,97377.22
2023-03-12T22:56:26.205Z,97370.03
2023-03-12T22:58:54.830Z,97371.25
2023-03-12T23:01:23.325Z,97358.66
2023-03-12T23:03:51.472Z,97358.41
2023-03-12T23:06:25.507Z,97361.84
2023-03-12T23:08:54.958Z,97350.78
2023-03-12T23:11:25.303Z,97346.34
2023-03-12T23:13:53.010Z,97335.44
2023-03-12T23:16:25.772Z,97340.44
2023-03-12T23:18:53.328Z,97344.25
2023-03-12T23:21:22.617Z,97343.50
2023-03-12T23:23:50.491Z,97346.53
2023-03-12T23:26:24.030Z,97352.00
2023-03-12T23:28:53.314Z,97343.81
2023-03-12T23:31:20.878Z,97337.56
2023-03-12T23:33:48.045Z,97333.28
2023-03-12T23:36:19.132Z,97337.09
2023-03-12T23:38:47.766Z,97340.09
2023-03-12T23:41:21.177Z,97348.91
2023-03-12T23:43:48.797Z,97353.03
2023-03-12T23:46:19.808Z,97343.19
2023-03-12T23:48:47.245Z,97345.47
2023-03-12T23:51:15.223Z,97341.44
2023-03-12T23:53:45.495Z,97341.13
2023-03-12T23:56:16.907Z,97329.53
2023-03-12T23:58:44.658Z,97336.38
